createdAt,value
2018-05-10T00:00:49.678Z,991.34
2018-05-10T00:01:49.648Z,991.31
2018-05-10T00:03:42.573Z,991.40
2018-05-10T00:04:42.485Z,991.37
2018-05-10T00:06:35.340Z,991.34
2018-05-10T00:07:35.318Z,991.39
2018-05-10T00:09:28.181Z,991.38
2018-05-10T00:10:28.153Z,991.40
2018-05-10T00:12:21.008Z,991.41
2018-05-10T00:13:20.991Z,991.37
2018-05-10T00:15:13.850Z,991.40
2018-05-10T00:16:13.826Z,991.32
2018-05-10T00:18:06.684Z,991.37
2018-05-10T00:19:06.664Z,991.31
2018-05-10T00:20:59.526Z,991.32
2018-05-10T00:21:59.499Z,991.30
2018-05-10T00:23:52.360Z,991.27
2018-05-10T00:24:52.336Z,991.29
2018-05-10T00:26:45.202Z,991.24
2018-05-10T00:27:45.170Z,991.23
2018-05-10T00:29:38.031Z,991.20
2018-05-10T00:30:38.006Z,991.20
2018-05-10T00:32:30.861Z,991.24
2018-05-10T00:33:30.841Z,991.23
2018-05-10T00:35:23.700Z,991.23
2018-05-10T00:36:23.675Z,991.29
2018-05-10T00:38:16.527Z,991.28
2018-05-10T00:39:16.510Z,991.31
2018-05-10T00:41:09.372Z,991.40
2018-05-10T00:42:09.346Z,991.42
2018-05-10T00:44:02.212Z,991.51
2018-05-10T00:45:02.181Z,991.48
2018-05-10T00:46:55.035Z,991.57
2018-05-10T00:47:55.020Z,991.54
2018-05-10T00:49:47.879Z,991.51
2018-05-10T00:50:47.851Z,991.50
2018-05-10T00:52:40.781Z,991.53
2018-05-10T00:53:40.685Z,991.52
2018-05-10T00:55:33.552Z,991.53
2018-05-10T00:56:33.516Z,991.54
2018-05-10T00:58:26.379Z,991.52
2018-05-10T00:59:26.354Z,991.50
2018-05-10T01:01:19.209Z,991.47
2018-05-10T01:02:19.218Z,991.43
2018-05-10T01:04:12.048Z,991.42
2018-05-10T01:05:12.108Z,991.42
2018-05-10T01:07:04.877Z,991.47
2018-05-10T01:08:04.861Z,991.44
2018-05-10T01:09:57.717Z,991.46
2018-05-10T01:10:57.690Z,991.46
2018-05-10T01:12:50.542Z,991.42
2018-05-10T01:13:50.522Z,991.42
2018-05-10T01:15:43.383Z,991.40
2018-05-10T01:16:43.358Z,991.40
2018-05-10T01:18:36.222Z,991.39
2018-05-10T01:19:36.190Z,991.39
2018-05-10T01:21:29.048Z,991.37
2018-05-10T01:22:29.028Z,991.32
2018-05-10T01:24:21.888Z,991.31
2018-05-10T01:25:21.867Z,991.41
2018-05-10T01:27:14.715Z,991.36
2018-05-10T01:28:14.698Z,991.40
2018-05-10T01:30:07.556Z,991.45
2018-05-10T01:31:07.530Z,991.45
2018-05-10T01:33:00.382Z,991.49
2018-05-10T01:34:00.365Z,991.46
2018-05-10T01:35:53.225Z,991.51
2018-05-10T01:36:53.200Z,991.53
2018-05-10T01:38:46.066Z,991.52
2018-05-10T01:39:46.034Z,991.54
2018-05-10T01:41:38.886Z,991.56
2018-05-10T01:42:38.872Z,991.62
2018-05-10T01:44:31.730Z,991.60
2018-05-10T01:45:31.704Z,991.61
2018-05-10T01:47:24.556Z,991.66
2018-05-10T01:48:24.538Z,991.60
2018-05-10T01:50:17.395Z,991.64
2018-05-10T01:51:17.370Z,991.64
2018-05-10T01:53:10.222Z,991.67
2018-05-10T01:54:10.205Z,991.63
2018-05-10T01:56:03.064Z,991.61
2018-05-10T01:57:03.038Z,991.62
2018-05-10T01:58:55.904Z,991.59
2018-05-10T01:59:55.875Z,991.60
2018-05-10T02:01:48.732Z,991.59
2018-05-10T02:02:48.711Z,991.60
2018-05-10T02:04:41.574Z,991.57
2018-05-10T02:05:41.547Z,991.60
2018-05-10T02:07:34.406Z,991.58
2018-05-10T02:08:34.382Z,991.61
2018-05-10T02:10:27.241Z,991.60
2018-05-10T02:11:27.217Z,991.61
2018-05-10T02:13:20.068Z,991.65
2018-05-10T02:14:20.052Z,991.70
2018-05-10T02:16:12.908Z,991.68
2018-05-10T02:17:12.883Z,991.71
2018-05-10T02:19:05.740Z,991.74
2018-05-10T02:20:05.715Z,991.77
2018-05-10T02:21:58.568Z,991.81
2018-05-10T02:22:58.549Z,991.84
2018-05-10T02:24:51.410Z,991.85
2018-05-10T02:25:51.384Z,991.88
2018-05-10T02:27:44.235Z,991.87
2018-05-10T02:28:44.216Z,991.86
2018-05-10T02:30:37.076Z,991.92
2018-05-10T02:31:37.051Z,991.91
2018-05-10T02:33:29.899Z,991.92
2018-05-10T02:34:29.882Z,991.96
2018-05-10T02:36:22.841Z,991.98
2018-05-10T02:37:22.718Z,991.98
2018-05-10T02:39:15.574Z,991.98
2018-05-10T02:40:15.550Z,992.01
2018-05-10T02:42:08.402Z,992.00
2018-05-10T02:43:08.389Z,992.00
2018-05-10T02:45:01.345Z,992.01
2018-05-10T02:46:01.220Z,992.04
2018-05-10T02:47:54.069Z,992.03
2018-05-10T02:48:54.049Z,991.99
2018-05-10T02:50:46.908Z,992.01
2018-05-10T02:51:46.883Z,992.02
2018-05-10T02:53:39.736Z,991.95
2018-05-10T02:54:39.727Z,991.96
2018-05-10T02:56:32.577Z,991.96
2018-05-10T02:57:32.551Z,991.92
2018-05-10T02:59:25.413Z,991.88
2018-05-10T03:00:25.386Z,991.91
2018-05-10T03:02:18.315Z,991.94
2018-05-10T03:03:18.219Z,991.88
2018-05-10T03:05:11.080Z,991.90
2018-05-10T03:06:11.051Z,991.91
2018-05-10T03:08:03.905Z,991.87
2018-05-10T03:09:03.885Z,991.85
2018-05-10T03:10:56.748Z,991.86
2018-05-10T03:11:56.722Z,991.87
2018-05-10T03:13:49.572Z,991.86
2018-05-10T03:14:49.554Z,991.89
2018-05-10T03:16:42.422Z,991.91
2018-05-10T03:17:42.388Z,991.91
2018-05-10T03:19:35.248Z,991.92
2018-05-10T03:20:35.223Z,991.92
2018-05-10T03:22:28.078Z,991.92
2018-05-10T03:23:28.060Z,991.96
2018-05-10T03:25:20.918Z,991.99
2018-05-10T03:26:20.892Z,991.98
2018-05-10T03:28:13.748Z,992.01
2018-05-10T03:29:13.731Z,992.05
2018-05-10T03:31:06.589Z,992.05
2018-05-10T03:32:06.563Z,992.05
2018-05-10T03:33:59.417Z,992.01
2018-05-10T03:34:59.400Z,992.04
2018-05-10T03:36:52.259Z,992.00
2018-05-10T03:37:52.232Z,992.06
2018-05-10T03:39:45.092Z,992.03
2018-05-10T03:40:45.067Z,992.02
2018-05-10T03:42:37.921Z,992.06
2018-05-10T03:43:37.905Z,992.08
2018-05-10T03:45:30.762Z,992.09
2018-05-10T03:46:30.789Z,992.13
2018-05-10T03:48:23.597Z,992.16
2018-05-10T03:49:23.577Z,992.19
2018-05-10T03:51:16.434Z,992.21
2018-05-10T03:52:16.431Z,992.18
2018-05-10T03:54:09.269Z,992.25
2018-05-10T03:55:09.249Z,992.26
2018-05-10T03:57:02.109Z,992.27
2018-05-10T03:58:02.088Z,992.32
2018-05-10T03:59:54.943Z,992.27
2018-05-10T04:00:54.916Z,992.27
2018-05-10T04:02:47.768Z,992.27
2018-05-10T04:03:47.748Z,992.32
2018-05-10T04:05:40.611Z,992.28
2018-05-10T04:06:40.583Z,992.30
2018-05-10T04:08:33.438Z,992.25
2018-05-10T04:09:33.419Z,992.23
2018-05-10T04:11:26.282Z,992.25
2018-05-10T04:12:26.250Z,992.28
2018-05-10T04:14:19.109Z,992.37
2018-05-10T04:15:19.083Z,992.37
2018-05-10T04:17:11.964Z,992.41
2018-05-10T04:18:11.938Z,992.44
2018-05-10T04:20:04.786Z,992.49
2018-05-10T04:21:04.768Z,992.48
2018-05-10T04:22:57.638Z,992.52
2018-05-10T04:23:57.610Z,992.55
2018-05-10T04:25:50.466Z,992.63
2018-05-10T04:26:50.439Z,992.69
2018-05-10T04:28:43.289Z,992.74
2018-05-10T04:29:43.273Z,992.73
2018-05-10T04:31:36.132Z,992.76
2018-05-10T04:32:36.107Z,992.77
2018-05-10T04:34:28.956Z,992.73
2018-05-10T04:35:28.938Z,992.72
2018-05-10T04:37:21.797Z,992.74
2018-05-10T04:38:21.773Z,992.76
2018-05-10T04:40:14.625Z,992.76
2018-05-10T04:41:14.606Z,992.75
2018-05-10T04:43:07.471Z,992.79
2018-05-10T04:44:07.441Z,992.76
2018-05-10T04:46:00.314Z,992.86
2018-05-10T04:47:00.286Z,992.88
2018-05-10T04:48:53.138Z,992.89
2018-05-10T04:49:53.118Z,992.87
2018-05-10T04:51:45.977Z,992.96
2018-05-10T04:52:45.951Z,992.91
2018-05-10T04:54:38.803Z,992.90
2018-05-10T04:55:38.784Z,992.95
2018-05-10T04:57:31.649Z,993.03
2018-05-10T04:58:31.618Z,992.99
2018-05-10T05:00:24.477Z,993.06
2018-05-10T05:01:24.458Z,993.03
2018-05-10T05:03:17.350Z,993.15
2018-05-10T05:04:17.295Z,993.11
2018-05-10T05:06:10.151Z,993.14
2018-05-10T05:07:10.126Z,993.22
2018-05-10T05:09:03.069Z,993.23
2018-05-10T05:10:02.956Z,993.26
2018-05-10T05:11:55.829Z,993.32
2018-05-10T05:12:55.791Z,993.31
2018-05-10T05:14:48.637Z,993.32
2018-05-10T05:15:48.618Z,993.31
2018-05-10T05:17:41.478Z,993.32
2018-05-10T05:18:41.466Z,993.30
2018-05-10T05:20:34.296Z,993.26
2018-05-10T05:21:34.302Z,993.31
2018-05-10T05:23:27.135Z,993.29
2018-05-10T05:24:27.109Z,993.27
2018-05-10T05:26:19.967Z,993.25
2018-05-10T05:27:19.942Z,993.31
2018-05-10T05:29:12.792Z,993.34
2018-05-10T05:30:12.770Z,993.33
2018-05-10T05:32:05.631Z,993.33
2018-05-10T05:33:05.603Z,993.33
2018-05-10T05:34:58.460Z,993.36
2018-05-10T05:35:58.438Z,993.36
2018-05-10T05:37:51.296Z,993.38
2018-05-10T05:38:51.270Z,993.38
2018-05-10T05:40:44.121Z,993.38
2018-05-10T05:41:44.100Z,993.37
2018-05-10T05:43:36.991Z,993.42
2018-05-10T05:44:36.934Z,993.40
2018-05-10T05:46:29.791Z,993.45
2018-05-10T05:47:29.769Z,993.44
2018-05-10T05:49:22.616Z,993.49
2018-05-10T05:50:22.599Z,993.56
2018-05-10T05:52:15.456Z,993.60
2018-05-10T05:53:15.430Z,993.64
2018-05-10T05:55:08.426Z,993.59
2018-05-10T05:56:08.259Z,993.73
2018-05-10T05:58:01.124Z,993.74
2018-05-10T05:59:01.091Z,993.76
2018-05-10T06:00:53.996Z,993.80
2018-05-10T06:01:53.922Z,993.82
2018-05-10T06:03:46.781Z,993.87
2018-05-10T06:04:46.756Z,993.83
2018-05-10T06:06:39.615Z,993.85
2018-05-10T06:07:39.590Z,993.74
2018-05-10T06:09:32.440Z,993.87
2018-05-10T06:10:32.422Z,993.87
2018-05-10T06:12:25.281Z,993.92
2018-05-10T06:13:25.259Z,993.88
2018-05-10T06:15:18.108Z,993.89
2018-05-10T06:16:18.092Z,993.92
2018-05-10T06:18:10.964Z,993.92
2018-05-10T06:19:10.925Z,993.91
2018-05-10T06:21:03.784Z,993.95
2018-05-10T06:22:03.765Z,993.97
2018-05-10T06:23:56.621Z,993.95
2018-05-10T06:24:56.788Z,993.96
2018-05-10T06:26:49.461Z,994.07
2018-05-10T06:27:49.435Z,994.12
2018-05-10T06:29:42.290Z,994.17
2018-05-10T06:30:42.272Z,994.16
2018-05-10T06:32:35.134Z,994.22
2018-05-10T06:33:35.106Z,994.22
2018-05-10T06:35:27.970Z,994.27
2018-05-10T06:36:27.946Z,994.29
2018-05-10T06:38:20.810Z,994.32
2018-05-10T06:39:20.785Z,994.31
2018-05-10T06:41:13.644Z,994.30
2018-05-10T06:42:13.627Z,994.34
2018-05-10T06:44:06.488Z,994.41
2018-05-10T06:45:06.465Z,994.39
2018-05-10T06:46:59.329Z,994.36
2018-05-10T06:47:59.307Z,994.48
2018-05-10T06:49:52.163Z,994.42
2018-05-10T06:50:52.145Z,994.43
2018-05-10T06:52:45.018Z,994.47
2018-05-10T06:53:44.989Z,994.44
2018-05-10T06:55:37.840Z,994.50
2018-05-10T06:56:37.825Z,994.43
2018-05-10T06:58:30.691Z,994.45
2018-05-10T06:59:30.665Z,994.49
2018-05-10T07:01:23.522Z,994.47
2018-05-10T07:02:23.506Z,994.36
2018-05-10T07:04:16.377Z,994.39
2018-05-10T07:05:16.353Z,994.48
2018-05-10T07:07:09.217Z,994.45
2018-05-10T07:08:09.191Z,994.52
2018-05-10T07:10:02.159Z,994.51
2018-05-10T07:11:02.032Z,994.46
2018-05-10T07:12:54.895Z,994.44
2018-05-10T07:13:54.872Z,994.49
2018-05-10T07:15:47.819Z,994.47
2018-05-10T07:16:47.709Z,994.58
2018-05-10T07:18:40.573Z,994.55
2018-05-10T07:19:40.549Z,994.47
2018-05-10T07:21:33.416Z,994.54
2018-05-10T07:22:33.393Z,994.55
2018-05-10T07:24:26.247Z,994.66
2018-05-10T07:25:26.247Z,994.65
2018-05-10T07:27:19.092Z,994.71
2018-05-10T07:28:19.072Z,994.63
2018-05-10T07:30:11.998Z,994.76
2018-05-10T07:31:11.911Z,994.71
2018-05-10T07:33:04.779Z,994.72
2018-05-10T07:34:04.753Z,994.83
2018-05-10T07:35:57.620Z,994.80
2018-05-10T07:36:57.604Z,994.81
2018-05-10T07:38:50.468Z,994.94
2018-05-10T07:39:50.441Z,994.59
2018-05-10T07:41:43.307Z,994.78
2018-05-10T07:42:43.281Z,994.61
2018-05-10T07:44:36.138Z,994.87
2018-05-10T07:45:36.122Z,994.93
2018-05-10T07:47:28.995Z,994.80
2018-05-10T07:48:28.961Z,994.85
2018-05-10T07:50:21.817Z,994.92
2018-05-10T07:51:21.801Z,994.95
2018-05-10T07:53:14.746Z,995.08
2018-05-10T07:54:14.641Z,994.97
2018-05-10T07:56:07.496Z,995.02
2018-05-10T07:57:07.482Z,995.06
2018-05-10T07:59:00.347Z,995.06
2018-05-10T08:00:00.325Z,995.13
2018-05-10T08:01:53.188Z,995.22
2018-05-10T08:02:53.165Z,995.20
2018-05-10T08:04:46.026Z,995.31
2018-05-10T08:05:46.008Z,995.29
2018-05-10T08:07:38.879Z,995.35
2018-05-10T08:08:38.852Z,995.40
2018-05-10T08:10:31.709Z,995.40
2018-05-10T08:11:31.694Z,995.46
2018-05-10T08:13:24.557Z,995.39
2018-05-10T08:14:24.532Z,995.49
2018-05-10T08:16:17.390Z,995.61
2018-05-10T08:17:17.376Z,995.56
2018-05-10T08:19:10.237Z,995.59
2018-05-10T08:20:10.216Z,995.69
2018-05-10T08:22:03.083Z,995.65
2018-05-10T08:23:03.058Z,995.67
2018-05-10T08:24:55.919Z,995.64
2018-05-10T08:25:55.901Z,995.69
2018-05-10T08:27:48.766Z,995.70
2018-05-10T08:28:48.750Z,995.77
2018-05-10T08:30:41.602Z,995.86
2018-05-10T08:31:41.585Z,995.68
2018-05-10T08:33:34.454Z,995.78
2018-05-10T08:34:34.429Z,995.90
2018-05-10T08:36:27.294Z,995.84
2018-05-10T08:37:27.268Z,995.87
2018-05-10T08:39:20.136Z,995.87
2018-05-10T08:40:20.111Z,995.92
2018-05-10T08:42:12.976Z,995.69
2018-05-10T08:43:12.951Z,995.96
2018-05-10T08:45:05.837Z,996.01
2018-05-10T08:46:05.796Z,996.12
2018-05-10T08:47:58.665Z,996.13
2018-05-10T08:48:58.636Z,996.13
2018-05-10T08:50:51.495Z,996.21
2018-05-10T08:51:51.596Z,996.19
2018-05-10T08:53:44.341Z,996.22
2018-05-10T08:54:44.317Z,996.24
2018-05-10T08:56:37.174Z,996.28
2018-05-10T08:57:37.158Z,996.27
2018-05-10T08:59:30.026Z,996.33
2018-05-10T09:00:30.018Z,996.35
2018-05-10T09:02:22.867Z,996.32
2018-05-10T09:03:22.841Z,996.25
2018-05-10T09:05:15.697Z,996.44
2018-05-10T09:06:15.679Z,996.44
2018-05-10T09:08:08.557Z,996.46
2018-05-10T09:09:08.531Z,996.52
2018-05-10T09:11:01.393Z,996.52
2018-05-10T09:12:01.374Z,996.53
2018-05-10T09:13:54.237Z,996.55
2018-05-10T09:14:54.212Z,996.60
2018-05-10T09:16:47.081Z,996.59
2018-05-10T09:17:47.063Z,996.66
2018-05-10T09:19:39.927Z,996.70
2018-05-10T09:20:39.910Z,996.70
2018-05-10T09:22:32.768Z,996.76
2018-05-10T09:23:32.739Z,996.73
2018-05-10T09:25:25.600Z,996.77
2018-05-10T09:26:25.580Z,996.83
2018-05-10T09:28:18.441Z,996.83
2018-05-10T09:29:18.419Z,996.80
2018-05-10T09:31:22.352Z,996.95
2018-05-10T09:32:22.339Z,996.93
2018-05-10T09:34:15.202Z,996.87
2018-05-10T09:35:15.178Z,996.88
2018-05-10T09:37:08.046Z,996.98
2018-05-10T09:38:08.017Z,996.95
2018-05-10T09:40:00.875Z,997.01
2018-05-10T09:41:00.856Z,996.96
2018-05-10T09:42:53.721Z,996.98
2018-05-10T09:43:53.697Z,996.90
2018-05-10T09:45:46.563Z,996.96
2018-05-10T09:46:46.546Z,996.93
2018-05-10T09:48:39.409Z,996.99
2018-05-10T09:49:39.384Z,997.08
2018-05-10T09:51:32.241Z,996.98
2018-05-10T09:52:32.225Z,997.13
2018-05-10T09:54:25.109Z,997.09
2018-05-10T09:55:25.064Z,997.12
2018-05-10T09:57:17.930Z,997.14
2018-05-10T09:58:17.906Z,997.14
2018-05-10T10:00:10.760Z,997.16
2018-05-10T10:01:10.742Z,997.09
2018-05-10T10:03:03.607Z,997.23
2018-05-10T10:04:03.579Z,997.19
2018-05-10T10:05:56.437Z,997.28
2018-05-10T10:06:56.420Z,997.25
2018-05-10T10:08:49.283Z,997.23
2018-05-10T10:09:49.258Z,997.23
2018-05-10T10:11:42.193Z,997.25
2018-05-10T10:12:42.092Z,997.35
2018-05-10T10:14:34.957Z,997.33
2018-05-10T10:15:34.931Z,997.40
2018-05-10T10:17:27.789Z,997.43
2018-05-10T10:18:27.763Z,997.39
2018-05-10T10:20:20.622Z,997.43
2018-05-10T10:21:20.601Z,997.49
2018-05-10T10:23:13.460Z,997.54
2018-05-10T10:24:13.437Z,997.53
2018-05-10T10:26:06.289Z,997.45
2018-05-10T10:27:06.272Z,997.56
2018-05-10T10:28:59.138Z,997.54
2018-05-10T10:29:59.112Z,997.53
2018-05-10T10:31:51.970Z,997.57
2018-05-10T10:32:51.954Z,997.48
2018-05-10T10:34:44.819Z,997.58
2018-05-10T10:35:44.800Z,997.63
2018-05-10T10:37:37.659Z,997.63
2018-05-10T10:38:37.633Z,997.64
2018-05-10T10:40:30.493Z,997.63
2018-05-10T10:41:30.476Z,997.72
2018-05-10T10:43:23.336Z,997.66
2018-05-10T10:44:23.311Z,997.70
2018-05-10T10:46:16.171Z,997.68
2018-05-10T10:47:16.151Z,997.75
2018-05-10T10:49:09.017Z,997.71
2018-05-10T10:50:08.987Z,997.70
2018-05-10T10:52:01.851Z,997.65
2018-05-10T10:53:01.832Z,997.78
2018-05-10T10:54:54.694Z,997.76
2018-05-10T10:55:54.668Z,997.83
2018-05-10T10:57:47.535Z,997.73
2018-05-10T10:58:47.504Z,997.87
2018-05-10T11:00:40.359Z,997.86
2018-05-10T11:01:40.341Z,997.93
2018-05-10T11:03:33.200Z,997.90
2018-05-10T11:04:33.174Z,998.00
2018-05-10T11:06:26.026Z,998.05
2018-05-10T11:07:26.008Z,998.01
2018-05-10T11:09:18.873Z,998.00
2018-05-10T11:10:18.847Z,997.97
2018-05-10T11:12:11.703Z,998.07
2018-05-10T11:13:11.685Z,998.02
2018-05-10T11:15:04.635Z,997.98
2018-05-10T11:16:04.518Z,998.06
2018-05-10T11:17:57.382Z,998.17
2018-05-10T11:18:57.356Z,998.11
2018-05-10T11:20:50.310Z,998.15
2018-05-10T11:21:50.194Z,998.23
2018-05-10T11:23:43.050Z,998.16
2018-05-10T11:24:43.025Z,998.19
2018-05-10T11:26:35.881Z,998.25
2018-05-10T11:27:35.859Z,998.24
2018-05-10T11:29:28.720Z,998.23
2018-05-10T11:30:28.697Z,998.22
2018-05-10T11:32:21.548Z,998.38
2018-05-10T11:33:21.721Z,998.39
2018-05-10T11:35:14.388Z,998.41
2018-05-10T11:36:14.385Z,998.42
2018-05-10T11:38:07.224Z,998.38
2018-05-10T11:39:07.278Z,998.42
2018-05-10T11:41:00.061Z,998.44
2018-05-10T11:42:00.041Z,998.41
2018-05-10T11:43:52.898Z,998.45
2018-05-10T11:44:52.881Z,998.44
2018-05-10T11:46:45.727Z,998.45
2018-05-10T11:47:45.710Z,998.42
2018-05-10T11:49:38.572Z,998.50
2018-05-10T11:50:38.545Z,998.47
2018-05-10T11:52:31.408Z,998.45
2018-05-10T11:53:31.380Z,998.44
2018-05-10T11:55:24.241Z,998.42
2018-05-10T11:56:24.216Z,998.43
2018-05-10T11:58:17.074Z,998.49
2018-05-10T11:59:17.051Z,998.47
2018-05-10T12:01:09.907Z,998.46
2018-05-10T12:02:09.888Z,998.51
2018-05-10T12:04:02.751Z,998.59
2018-05-10T12:05:02.726Z,998.54
2018-05-10T12:06:55.580Z,998.45
2018-05-10T12:07:55.562Z,998.53
2018-05-10T12:09:48.428Z,998.49
2018-05-10T12:10:48.400Z,998.65
2018-05-10T12:12:41.255Z,998.62
2018-05-10T12:13:41.238Z,998.56
2018-05-10T12:15:34.096Z,998.69
2018-05-10T12:16:34.068Z,998.69
2018-05-10T12:18:26.929Z,998.72
2018-05-10T12:19:26.910Z,998.74
2018-05-10T12:21:19.757Z,998.81
2018-05-10T12:22:19.738Z,998.79
2018-05-10T12:24:12.597Z,998.85
2018-05-10T12:25:12.570Z,998.90
2018-05-10T12:27:05.423Z,998.74
2018-05-10T12:28:05.402Z,998.83
2018-05-10T12:29:58.263Z,998.88
2018-05-10T12:30:58.303Z,998.84
2018-05-10T12:32:51.094Z,998.89
2018-05-10T12:33:51.067Z,999.00
2018-05-10T12:35:43.919Z,998.90
2018-05-10T12:36:43.901Z,999.06
2018-05-10T12:38:36.761Z,999.09
2018-05-10T12:39:36.734Z,999.05
2018-05-10T12:41:29.592Z,999.17
2018-05-10T12:42:29.568Z,999.08
2018-05-10T12:44:22.425Z,999.12
2018-05-10T12:45:22.399Z,999.15
2018-05-10T12:47:15.259Z,999.16
2018-05-10T12:48:15.233Z,999.07
2018-05-10T12:50:08.097Z,999.23
2018-05-10T12:51:08.065Z,999.10
2018-05-10T12:53:00.929Z,999.33
2018-05-10T12:54:00.904Z,999.25
2018-05-10T12:55:53.751Z,999.20
2018-05-10T12:56:53.733Z,999.30
2018-05-10T12:58:46.591Z,999.28
2018-05-10T12:59:46.564Z,999.36
2018-05-10T13:01:39.420Z,999.48
2018-05-10T13:02:39.400Z,999.39
2018-05-10T13:04:32.266Z,999.44
2018-05-10T13:05:32.231Z,999.55
2018-05-10T13:07:25.087Z,999.63
2018-05-10T13:08:25.078Z,999.72
2018-05-10T13:10:17.927Z,999.82
2018-05-10T13:11:17.897Z,999.81
2018-05-10T13:13:10.758Z,999.87
2018-05-10T13:14:10.728Z,999.78
2018-05-10T13:16:03.587Z,999.83
2018-05-10T13:17:03.561Z,1000.02
2018-05-10T13:18:56.420Z,999.86
2018-05-10T13:19:56.392Z,999.98
2018-05-10T13:21:49.339Z,999.80
2018-05-10T13:22:49.227Z,999.88
2018-05-10T13:24:42.088Z,999.92
2018-05-10T13:25:42.058Z,1000.08
2018-05-10T13:27:34.918Z,1000.12
2018-05-10T13:28:34.888Z,1000.07
2018-05-10T13:30:27.748Z,1000.14
2018-05-10T13:31:27.722Z,1000.25
2018-05-10T13:33:20.583Z,1000.03
2018-05-10T13:34:20.555Z,1000.20
2018-05-10T13:36:13.422Z,1000.27
2018-05-10T13:37:13.399Z,1000.47
2018-05-10T13:39:06.260Z,1000.46
2018-05-10T13:40:06.232Z,1000.42
2018-05-10T13:41:59.082Z,1000.53
2018-05-10T13:42:59.063Z,1000.48
2018-05-10T13:44:51.922Z,1000.38
2018-05-10T13:45:51.893Z,1000.50
2018-05-10T13:47:44.824Z,1000.48
2018-05-10T13:48:44.724Z,1000.59
2018-05-10T13:50:37.580Z,1000.66
2018-05-10T13:51:37.557Z,1000.60
2018-05-10T13:53:30.412Z,1000.73
2018-05-10T13:54:30.384Z,1000.67
2018-05-10T13:56:23.232Z,1000.82
2018-05-10T13:57:23.212Z,1000.87
2018-05-10T13:59:16.073Z,1000.95
2018-05-10T14:00:16.048Z,1000.83
2018-05-10T14:02:08.898Z,1001.04
2018-05-10T14:03:08.876Z,1001.01
2018-05-10T14:05:01.737Z,1001.09
2018-05-10T14:06:01.707Z,1001.17
2018-05-10T14:07:54.560Z,1001.18
2018-05-10T14:08:54.540Z,1001.29
2018-05-10T14:10:47.479Z,1001.11
2018-05-10T14:11:47.368Z,1001.19
2018-05-10T14:13:40.232Z,1001.34
2018-05-10T14:14:40.202Z,1001.28
2018-05-10T14:16:33.108Z,1001.35
2018-05-10T14:17:33.040Z,1001.37
2018-05-10T14:19:25.894Z,1001.41
2018-05-10T14:20:25.867Z,1001.43
2018-05-10T14:22:18.720Z,1001.50
2018-05-10T14:23:18.697Z,1001.50
2018-05-10T14:25:11.555Z,1001.53
2018-05-10T14:26:11.529Z,1001.55
2018-05-10T14:28:04.384Z,1001.58
2018-05-10T14:29:04.360Z,1001.58
2018-05-10T14:30:57.719Z,1001.59
2018-05-10T14:31:57.693Z,1001.54
2018-05-10T14:33:50.545Z,1001.74
2018-05-10T14:34:50.519Z,1001.63
2018-05-10T14:36:43.370Z,1001.65
2018-05-10T14:37:43.351Z,1001.64
2018-05-10T14:39:36.294Z,1001.74
2018-05-10T14:40:36.184Z,1001.79
2018-05-10T14:42:29.036Z,1001.77
2018-05-10T14:43:29.016Z,1001.83
2018-05-10T14:45:21.882Z,1001.69
2018-05-10T14:46:21.854Z,1001.73
2018-05-10T14:48:14.774Z,1001.88
2018-05-10T14:49:14.686Z,1001.88
2018-05-10T14:51:07.544Z,1001.84
2018-05-10T14:52:07.519Z,1001.75
2018-05-10T14:54:00.417Z,1001.89
2018-05-10T14:55:00.349Z,1001.90
2018-05-10T14:56:53.278Z,1001.64
2018-05-10T14:57:53.182Z,1002.01
2018-05-10T14:59:46.044Z,1001.77
2018-05-10T15:00:46.014Z,1001.92
2018-05-10T15:02:38.871Z,1002.00
2018-05-10T15:03:38.848Z,1001.98
2018-05-10T15:05:31.707Z,1001.95
2018-05-10T15:06:31.681Z,1001.98
2018-05-10T15:08:24.535Z,1002.08
2018-05-10T15:09:24.512Z,1002.22
2018-05-10T15:11:17.377Z,1002.13
2018-05-10T15:12:17.346Z,1002.12
2018-05-10T15:14:10.217Z,1002.10
2018-05-10T15:15:10.187Z,1002.16
2018-05-10T15:17:03.037Z,1002.14
2018-05-10T15:18:03.018Z,1002.22
2018-05-10T15:19:55.878Z,1002.18
2018-05-10T15:20:55.848Z,1002.22
2018-05-10T15:22:48.700Z,1002.29
2018-05-10T15:23:48.678Z,1002.22
2018-05-10T15:25:41.538Z,1002.25
2018-05-10T15:26:41.512Z,1002.23
2018-05-10T15:28:34.370Z,1002.37
2018-05-10T15:29:34.347Z,1002.38
2018-05-10T15:31:27.196Z,1002.39
2018-05-10T15:32:27.177Z,1002.37
2018-05-10T15:34:20.035Z,1002.38
2018-05-10T15:35:20.008Z,1002.41
2018-05-10T15:37:12.860Z,1002.48
2018-05-10T15:38:12.841Z,1002.43
2018-05-10T15:40:05.765Z,1002.44
2018-05-10T15:41:05.680Z,1002.46
2018-05-10T15:42:58.527Z,1002.45
2018-05-10T15:43:58.507Z,1002.47
2018-05-10T15:45:51.410Z,1002.47
2018-05-10T15:46:51.339Z,1002.52
2018-05-10T15:48:44.198Z,1002.48
2018-05-10T15:49:44.278Z,1002.51
2018-05-10T15:51:37.018Z,1002.57
2018-05-10T15:52:37.008Z,1002.57
2018-05-10T15:54:29.862Z,1002.52
2018-05-10T15:55:29.836Z,1002.56
2018-05-10T15:57:22.687Z,1002.62
2018-05-10T15:58:22.665Z,1002.64
2018-05-10T16:00:15.522Z,1002.68
2018-05-10T16:01:15.497Z,1002.67
2018-05-10T16:03:08.350Z,1002.69
2018-05-10T16:04:08.328Z,1002.79
2018-05-10T16:06:01.189Z,1002.79
2018-05-10T16:07:01.162Z,1002.81
2018-05-10T16:08:54.020Z,1002.85
2018-05-10T16:09:53.992Z,1002.84
2018-05-10T16:11:46.845Z,1002.89
2018-05-10T16:12:46.824Z,1002.89
2018-05-10T16:14:39.688Z,1002.92
2018-05-10T16:15:39.660Z,1002.97
2018-05-10T16:17:32.515Z,1003.00
2018-05-10T16:18:32.493Z,1003.03
2018-05-10T16:20:25.352Z,1003.00
2018-05-10T16:21:25.356Z,1002.97
2018-05-10T16:23:18.173Z,1002.97
2018-05-10T16:24:18.152Z,1003.04
2018-05-10T16:26:11.011Z,1003.02
2018-05-10T16:27:10.983Z,1003.06
2018-05-10T16:29:03.854Z,1003.05
2018-05-10T16:30:03.824Z,1003.03
2018-05-10T16:31:56.672Z,1003.01
2018-05-10T16:32:56.770Z,1003.04
2018-05-10T16:34:49.515Z,1002.98
2018-05-10T16:35:49.486Z,1002.96
2018-05-10T16:37:42.338Z,1003.00
2018-05-10T16:38:42.313Z,1003.06
2018-05-10T16:40:35.174Z,1003.08
2018-05-10T16:41:35.148Z,1003.07
2018-05-10T16:43:28.005Z,1003.11
2018-05-10T16:44:27.980Z,1003.07
2018-05-10T16:46:20.841Z,1003.11
2018-05-10T16:47:20.809Z,1003.15
2018-05-10T16:49:13.671Z,1003.20
2018-05-10T16:50:13.643Z,1003.20
2018-05-10T16:52:06.498Z,1003.17
2018-05-10T16:53:06.475Z,1003.19
2018-05-10T16:54:59.333Z,1003.18
2018-05-10T16:55:59.308Z,1003.17
2018-05-10T16:57:52.162Z,1003.18
2018-05-10T16:58:52.142Z,1003.26
2018-05-10T17:00:44.999Z,1003.18
2018-05-10T17:01:44.975Z,1003.16
2018-05-10T17:03:37.824Z,1003.23
2018-05-10T17:04:37.805Z,1003.24
2018-05-10T17:06:30.668Z,1003.23
2018-05-10T17:07:30.638Z,1003.25
2018-05-10T17:09:23.496Z,1003.33
2018-05-10T17:10:23.468Z,1003.35
2018-05-10T17:12:16.323Z,1003.30
2018-05-10T17:13:16.308Z,1003.36
2018-05-10T17:15:09.166Z,1003.43
2018-05-10T17:16:09.137Z,1003.41
2018-05-10T17:18:01.991Z,1003.43
2018-05-10T17:19:01.969Z,1003.52
2018-05-10T17:20:54.829Z,1003.53
2018-05-10T17:21:54.800Z,1003.54
2018-05-10T17:23:47.654Z,1003.56
2018-05-10T17:24:47.636Z,1003.62
2018-05-10T17:26:40.497Z,1003.57
2018-05-10T17:27:40.469Z,1003.60
2018-05-10T17:29:33.331Z,1003.61
2018-05-10T17:30:33.302Z,1003.58
2018-05-10T17:32:26.154Z,1003.67
2018-05-10T17:33:26.136Z,1003.67
2018-05-10T17:35:18.996Z,1003.68
2018-05-10T17:36:18.969Z,1003.68
2018-05-10T17:38:11.822Z,1003.67
2018-05-10T17:39:11.802Z,1003.72
2018-05-10T17:41:04.668Z,1003.73
2018-05-10T17:42:04.644Z,1003.74
2018-05-10T17:43:57.491Z,1003.78
2018-05-10T17:44:57.469Z,1003.78
2018-05-10T17:46:50.326Z,1003.81
2018-05-10T17:47:50.305Z,1003.78
2018-05-10T17:49:43.165Z,1003.83